sensor_id;sensor_type;location;lat;lon;timestamp;P1;durP1;ratioP1;P2;durP2;ratioP2
22363;SDS011;11349;53.412;-1.328;2023-04-24T00:02:17;6.05;;;2.03;;
22363;SDS011;11349;53.412;-1.328;2023-04-24T00:04:47;8.30;;;2.25;;
22363;SDS011;11349;53.412;-1.328;2023-04-24T00:07:14;7.07;;;2.30;;
22363;SDS011;11349;53.412;-1.328;2023-04-24T00:09:41;10.23;;;2.42;;
22363;SDS011;11349;53.412;-1.328;2023-04-24T00:12:08;9.57;;;2.50;;
22363;SDS011;11349;53.412;-1.328;2023-04-24T00:14:35;6.95;;;2.05;;
22363;SDS011;11349;53.412;-1.328;2023-04-24T00:17:01;9.38;;;3.28;;
22363;SDS011;11349;53.412;-1.328;2023-04-24T00:19:29;9.82;;;2.45;;
22363;SDS011;11349;53.412;-1.328;2023-04-24T00:21:55;6.68;;;1.95;;
22363;SDS011;11349;53.412;-1.328;2023-04-24T00:24:21;8.32;;;2.55;;
22363;SDS011;11349;53.412;-1.328;2023-04-24T00:26:47;11.48;;;2.22;;
22363;SDS011;11349;53.412;-1.328;2023-04-24T00:29:12;5.00;;;2.00;;
22363;SDS011;11349;53.412;-1.328;2023-04-24T00:31:38;7.03;;;2.00;;
22363;SDS011;11349;53.412;-1.328;2023-04-24T00:34:04;11.65;;;2.22;;
22363;SDS011;11349;53.412;-1.328;2023-04-24T00:36:30;10.18;;;2.85;;
22363;SDS011;11349;53.412;-1.328;2023-04-24T00:38:57;6.30;;;1.65;;
22363;SDS011;11349;53.412;-1.328;2023-04-24T00:41:23;8.02;;;1.88;;
22363;SDS011;11349;53.412;-1.328;2023-04-24T00:43:50;9.55;;;1.90;;
22363;SDS011;11349;53.412;-1.328;2023-04-24T00:46:17;8.60;;;2.05;;
22363;SDS011;11349;53.412;-1.328;2023-04-24T00:48:43;6.70;;;1.60;;
22363;SDS011;11349;53.412;-1.328;2023-04-24T00:51:09;5.22;;;1.77;;
22363;SDS011;11349;53.412;-1.328;2023-04-24T00:53:35;7.22;;;2.13;;
22363;SDS011;11349;53.412;-1.328;2023-04-24T00:56:01;9.45;;;2.05;;
22363;SDS011;11349;53.412;-1.328;2023-04-24T00:58:27;6.82;;;1.77;;
22363;SDS011;11349;53.412;-1.328;2023-04-24T01:00:53;9.25;;;2.92;;
22363;SDS011;11349;53.412;-1.328;2023-04-24T01:03:21;7.82;;;2.50;;
22363;SDS011;11349;53.412;-1.328;2023-04-24T01:05:49;10.73;;;2.20;;
22363;SDS011;11349;53.412;-1.328;2023-04-24T01:08:16;4.82;;;1.80;;
22363;SDS011;11349;53.412;-1.328;2023-04-24T01:10:42;6.90;;;1.90;;
22363;SDS011;11349;53.412;-1.328;2023-04-24T01:13:10;5.53;;;1.80;;
22363;SDS011;11349;53.412;-1.328;2023-04-24T01:15:35;6.75;;;1.83;;
22363;SDS011;11349;53.412;-1.328;2023-04-24T01:18:01;6.55;;;1.45;;
22363;SDS011;11349;53.412;-1.328;2023-04-24T01:20:31;8.23;;;2.35;;
22363;SDS011;11349;53.412;-1.328;2023-04-24T01:22:58;9.45;;;1.48;;
22363;SDS011;11349;53.412;-1.328;2023-04-24T01:25:25;7.50;;;1.92;;
22363;SDS011;11349;53.412;-1.328;2023-04-24T01:27:53;7.82;;;2.08;;
22363;SDS011;11349;53.412;-1.328;2023-04-24T01:30:18;9.70;;;1.88;;
22363;SDS011;11349;53.412;-1.328;2023-04-24T01:32:44;5.78;;;1.52;;
22363;SDS011;11349;53.412;-1.328;2023-04-24T01:35:11;4.13;;;1.48;;
22363;SDS011;11349;53.412;-1.328;2023-04-24T01:37:37;7.60;;;1.50;;
22363;SDS011;11349;53.412;-1.328;2023-04-24T01:40:04;6.03;;;1.52;;
22363;SDS011;11349;53.412;-1.328;2023-04-24T01:42:31;4.93;;;1.85;;
22363;SDS011;11349;53.412;-1.328;2023-04-24T01:44:57;10.63;;;2.08;;
22363;SDS011;11349;53.412;-1.328;2023-04-24T01:47:24;9.20;;;1.92;;
22363;SDS011;11349;53.412;-1.328;2023-04-24T01:49:50;6.20;;;1.48;;
22363;SDS011;11349;53.412;-1.328;2023-04-24T01:52:16;4.95;;;1.60;;
22363;SDS011;11349;53.412;-1.328;2023-04-24T01:54:43;7.47;;;1.90;;
22363;SDS011;11349;53.412;-1.328;2023-04-24T01:57:09;6.70;;;2.63;;
22363;SDS011;11349;53.412;-1.328;2023-04-24T01:59:38;9.20;;;1.83;;
22363;SDS011;11349;53.412;-1.328;2023-04-24T02:02:04;7.13;;;1.48;;
22363;SDS011;11349;53.412;-1.328;2023-04-24T02:04:29;7.18;;;1.60;;
22363;SDS011;11349;53.412;-1.328;2023-04-24T02:06:55;5.10;;;1.50;;
22363;SDS011;11349;53.412;-1.328;2023-04-24T02:09:23;9.00;;;1.90;;
22363;SDS011;11349;53.412;-1.328;2023-04-24T02:11:49;4.78;;;1.50;;
22363;SDS011;11349;53.412;-1.328;2023-04-24T02:14:15;7.47;;;1.55;;
22363;SDS011;11349;53.412;-1.328;2023-04-24T02:16:41;10.15;;;1.75;;
22363;SDS011;11349;53.412;-1.328;2023-04-24T02:19:07;6.05;;;1.70;;
22363;SDS011;11349;53.412;-1.328;2023-04-24T02:21:33;6.82;;;1.88;;
22363;SDS011;11349;53.412;-1.328;2023-04-24T02:23:59;8.50;;;1.80;;
22363;SDS011;11349;53.412;-1.328;2023-04-24T02:26:25;7.85;;;1.67;;
22363;SDS011;11349;53.412;-1.328;2023-04-24T02:28:51;11.50;;;2.10;;
22363;SDS011;11349;53.412;-1.328;2023-04-24T02:31:16;7.07;;;1.88;;
22363;SDS011;11349;53.412;-1.328;2023-04-24T02:33:42;8.68;;;2.45;;
22363;SDS011;11349;53.412;-1.328;2023-04-24T02:36:08;5.88;;;2.00;;
22363;SDS011;11349;53.412;-1.328;2023-04-24T02:38:33;7.00;;;1.50;;
22363;SDS011;11349;53.412;-1.328;2023-04-24T02:40:59;6.40;;;2.20;;
22363;SDS011;11349;53.412;-1.328;2023-04-24T02:43:27;6.03;;;1.80;;
22363;SDS011;11349;53.412;-1.328;2023-04-24T02:45:53;6.30;;;1.67;;
22363;SDS011;11349;53.412;-1.328;2023-04-24T02:48:18;5.65;;;1.55;;
22363;SDS011;11349;53.412;-1.328;2023-04-24T02:50:46;6.78;;;1.45;;
22363;SDS011;11349;53.412;-1.328;2023-04-24T02:53:12;7.18;;;1.50;;
22363;SDS011;11349;53.412;-1.328;2023-04-24T02:55:37;3.97;;;1.30;;
22363;SDS011;11349;53.412;-1.328;2023-04-24T02:58:03;8.73;;;1.80;;
22363;SDS011;11349;53.412;-1.328;2023-04-24T03:00:29;4.63;;;1.85;;
22363;SDS011;11349;53.412;-1.328;2023-04-24T03:02:55;6.22;;;1.67;;
22363;SDS011;11349;53.412;-1.328;2023-04-24T03:05:20;10.02;;;1.85;;
22363;SDS011;11349;53.412;-1.328;2023-04-24T03:07:46;11.35;;;1.70;;
22363;SDS011;11349;53.412;-1.328;2023-04-24T03:10:12;6.95;;;1.50;;
22363;SDS011;11349;53.412;-1.328;2023-04-24T03:12:38;7.40;;;1.85;;
22363;SDS011;11349;53.412;-1.328;2023-04-24T03:15:04;6.78;;;1.83;;
22363;SDS011;11349;53.412;-1.328;2023-04-24T03:17:30;7.45;;;1.80;;
22363;SDS011;11349;53.412;-1.328;2023-04-24T03:19:55;9.27;;;2.85;;
22363;SDS011;11349;53.412;-1.328;2023-04-24T03:22:21;9.50;;;1.90;;
22363;SDS011;11349;53.412;-1.328;2023-04-24T03:24:47;7.88;;;1.60;;
22363;SDS011;11349;53.412;-1.328;2023-04-24T03:27:12;8.52;;;1.90;;
22363;SDS011;11349;53.412;-1.328;2023-04-24T03:29:38;6.25;;;1.80;;
22363;SDS011;11349;53.412;-1.328;2023-04-24T03:32:04;3.92;;;1.63;;
22363;SDS011;11349;53.412;-1.328;2023-04-24T03:34:30;9.52;;;2.53;;
22363;SDS011;11349;53.412;-1.328;2023-04-24T03:36:56;4.75;;;2.10;;
22363;SDS011;11349;53.412;-1.328;2023-04-24T03:39:21;8.45;;;1.92;;
22363;SDS011;11349;53.412;-1.328;2023-04-24T03:41:47;7.35;;;1.83;;
22363;SDS011;11349;53.412;-1.328;2023-04-24T03:44:13;10.95;;;2.00;;
22363;SDS011;11349;53.412;-1.328;2023-04-24T03:46:38;7.18;;;1.67;;
22363;SDS011;11349;53.412;-1.328;2023-04-24T03:49:04;10.35;;;2.63;;
22363;SDS011;11349;53.412;-1.328;2023-04-24T03:51:30;8.52;;;1.92;;
22363;SDS011;11349;53.412;-1.328;2023-04-24T03:53:56;8.60;;;2.08;;
22363;SDS011;11349;53.412;-1.328;2023-04-24T03:56:22;6.97;;;2.10;;
22363;SDS011;11349;53.412;-1.328;2023-04-24T03:58:47;6.57;;;2.10;;
22363;SDS011;11349;53.412;-1.328;2023-04-24T04:01:13;9.30;;;2.03;;
22363;SDS011;11349;53.412;-1.328;2023-04-24T04:03:43;5.70;;;1.88;;
22363;SDS011;11349;53.412;-1.328;2023-04-24T04:06:09;8.35;;;1.95;;
22363;SDS011;11349;53.412;-1.328;2023-04-24T04:08:36;10.48;;;2.53;;
22363;SDS011;11349;53.412;-1.328;2023-04-24T04:11:01;8.18;;;2.58;;
22363;SDS011;11349;53.412;-1.328;2023-04-24T04:13:27;8.50;;;2.25;;
22363;SDS011;11349;53.412;-1.328;2023-04-24T04:15:53;11.02;;;2.17;;
22363;SDS011;11349;53.412;-1.328;2023-04-24T04:18:19;9.13;;;2.05;;
22363;SDS011;11349;53.412;-1.328;2023-04-24T04:20:44;5.82;;;1.98;;
22363;SDS011;11349;53.412;-1.328;2023-04-24T04:23:10;8.95;;;1.90;;
22363;SDS011;11349;53.412;-1.328;2023-04-24T04:25:36;8.18;;;1.70;;
22363;SDS011;11349;53.412;-1.328;2023-04-24T04:28:02;6.95;;;1.70;;
22363;SDS011;11349;53.412;-1.328;2023-04-24T04:30:28;7.82;;;2.00;;
22363;SDS011;11349;53.412;-1.328;2023-04-24T04:32:57;9.45;;;2.30;;
22363;SDS011;11349;53.412;-1.328;2023-04-24T04:35:24;6.07;;;1.90;;
22363;SDS011;11349;53.412;-1.328;2023-04-24T04:37:50;7.28;;;1.83;;
22363;SDS011;11349;53.412;-1.328;2023-04-24T04:40:16;6.68;;;1.60;;
22363;SDS011;11349;53.412;-1.328;2023-04-24T04:42:45;7.57;;;2.00;;
22363;SDS011;11349;53.412;-1.328;2023-04-24T04:45:11;5.18;;;1.50;;
22363;SDS011;11349;53.412;-1.328;2023-04-24T04:47:37;5.50;;;1.67;;
22363;SDS011;11349;53.412;-1.328;2023-04-24T04:50:04;7.25;;;2.17;;
22363;SDS011;11349;53.412;-1.328;2023-04-24T04:52:30;7.63;;;1.55;;
22363;SDS011;11349;53.412;-1.328;2023-04-24T04:54:56;6.95;;;2.22;;
22363;SDS011;11349;53.412;-1.328;2023-04-24T04:57:24;8.45;;;2.88;;
22363;SDS011;11349;53.412;-1.328;2023-04-24T04:59:50;10.20;;;2.00;;
22363;SDS011;11349;53.412;-1.328;2023-04-24T05:02:16;7.97;;;2.22;;
22363;SDS011;11349;53.412;-1.328;2023-04-24T05:04:41;7.15;;;2.13;;
22363;SDS011;11349;53.412;-1.328;2023-04-24T05:07:07;7.30;;;1.90;;
22363;SDS011;11349;53.412;-1.328;2023-04-24T05:09:33;6.35;;;1.73;;
22363;SDS011;11349;53.412;-1.328;2023-04-24T05:11:58;5.90;;;1.60;;
22363;SDS011;11349;53.412;-1.328;2023-04-24T05:14:24;8.90;;;1.90;;
22363;SDS011;11349;53.412;-1.328;2023-04-24T05:16:50;8.10;;;2.70;;
22363;SDS011;11349;53.412;-1.328;2023-04-24T05:19:15;5.20;;;1.33;;
22363;SDS011;11349;53.412;-1.328;2023-04-24T05:21:41;7.78;;;1.70;;
22363;SDS011;11349;53.412;-1.328;2023-04-24T05:24:07;8.73;;;1.90;;
22363;SDS011;11349;53.412;-1.328;2023-04-24T05:26:33;10.98;;;2.78;;
22363;SDS011;11349;53.412;-1.328;2023-04-24T05:28:58;7.15;;;2.28;;
22363;SDS011;11349;53.412;-1.328;2023-04-24T05:31:25;8.52;;;2.67;;
22363;SDS011;11349;53.412;-1.328;2023-04-24T05:33:50;15.40;;;2.30;;
22363;SDS011;11349;53.412;-1.328;2023-04-24T05:36:16;10.35;;;3.03;;
22363;SDS011;11349;53.412;-1.328;2023-04-24T05:38:42;8.88;;;2.17;;
22363;SDS011;11349;53.412;-1.328;2023-04-24T05:41:08;6.20;;;2.15;;
22363;SDS011;11349;53.412;-1.328;2023-04-24T05:43:34;11.98;;;2.65;;
22363;SDS011;11349;53.412;-1.328;2023-04-24T05:45:59;6.72;;;1.80;;
22363;SDS011;11349;53.412;-1.328;2023-04-24T05:48:25;6.60;;;2.22;;
22363;SDS011;11349;53.412;-1.328;2023-04-24T05:50:53;6.95;;;2.83;;
22363;SDS011;11349;53.412;-1.328;2023-04-24T05:53:19;12.23;;;2.40;;
22363;SDS011;11349;53.412;-1.328;2023-04-24T05:55:46;7.88;;;2.15;;
22363;SDS011;11349;53.412;-1.328;2023-04-24T05:58:12;8.63;;;2.35;;
22363;SDS011;11349;53.412;-1.328;2023-04-24T06:00:39;8.88;;;2.38;;
22363;SDS011;11349;53.412;-1.328;2023-04-24T06:03:07;10.48;;;2.55;;
22363;SDS011;11349;53.412;-1.328;2023-04-24T06:05:33;6.63;;;1.83;;
22363;SDS011;11349;53.412;-1.328;2023-04-24T06:07:59;11.80;;;1.88;;
22363;SDS011;11349;53.412;-1.328;2023-04-24T06:10:25;7.18;;;2.17;;
22363;SDS011;11349;53.412;-1.328;2023-04-24T06:12:51;7.25;;;2.22;;
22363;SDS011;11349;53.412;-1.328;2023-04-24T06:15:17;8.10;;;2.20;;
22363;SDS011;11349;53.412;-1.328;2023-04-24T06:17:43;9.38;;;2.13;;
22363;SDS011;11349;53.412;-1.328;2023-04-24T06:20:08;11.40;;;2.58;;
22363;SDS011;11349;53.412;-1.328;2023-04-24T06:22:37;8.95;;;1.95;;
22363;SDS011;11349;53.412;-1.328;2023-04-24T06:25:05;9.65;;;2.10;;
22363;SDS011;11349;53.412;-1.328;2023-04-24T06:27:32;8.68;;;2.72;;
22363;SDS011;11349;53.412;-1.328;2023-04-24T06:29:58;13.27;;;2.50;;
22363;SDS011;11349;53.412;-1.328;2023-04-24T06:32:23;15.25;;;2.55;;
22363;SDS011;11349;53.412;-1.328;2023-04-24T06:34:52;11.23;;;2.88;;
22363;SDS011;11349;53.412;-1.328;2023-04-24T06:37:19;12.20;;;2.15;;
22363;SDS011;11349;53.412;-1.328;2023-04-24T06:39:45;10.70;;;3.15;;
22363;SDS011;11349;53.412;-1.328;2023-04-24T06:42:11;13.73;;;2.97;;
22363;SDS011;11349;53.412;-1.328;2023-04-24T06:44:37;8.25;;;2.25;;
22363;SDS011;11349;53.412;-1.328;2023-04-24T06:47:14;9.13;;;2.65;;
22363;SDS011;11349;53.412;-1.328;2023-04-24T06:49:40;10.85;;;2.30;;
22363;SDS011;11349;53.412;-1.328;2023-04-24T06:52:06;8.02;;;2.38;;
22363;SDS011;11349;53.412;-1.328;2023-04-24T06:54:32;11.27;;;2.42;;
22363;SDS011;11349;53.412;-1.328;2023-04-24T06:56:59;12.75;;;2.25;;
22363;SDS011;11349;53.412;-1.328;2023-04-24T06:59:28;11.05;;;2.90;;
22363;SDS011;11349;53.412;-1.328;2023-04-24T07:01:54;9.95;;;2.50;;
22363;SDS011;11349;53.412;-1.328;2023-04-24T07:04:22;10.60;;;2.95;;
22363;SDS011;11349;53.412;-1.328;2023-04-24T07:06:49;11.32;;;2.13;;
22363;SDS011;11349;53.412;-1.328;2023-04-24T07:09:16;10.52;;;3.65;;
22363;SDS011;11349;53.412;-1.328;2023-04-24T07:11:43;11.00;;;3.13;;
22363;SDS011;11349;53.412;-1.328;2023-04-24T07:14:09;16.15;;;3.95;;
22363;SDS011;11349;53.412;-1.328;2023-04-24T07:16:35;11.30;;;3.40;;
22363;SDS011;11349;53.412;-1.328;2023-04-24T07:19:01;17.33;;;3.85;;
22363;SDS011;11349;53.412;-1.328;2023-04-24T07:21:27;13.82;;;2.83;;
22363;SDS011;11349;53.412;-1.328;2023-04-24T07:23:52;15.18;;;3.22;;
22363;SDS011;11349;53.412;-1.328;2023-04-24T07:26:19;11.57;;;3.20;;
22363;SDS011;11349;53.412;-1.328;2023-04-24T07:28:45;13.00;;;3.35;;
22363;SDS011;11349;53.412;-1.328;2023-04-24T07:31:11;19.33;;;3.67;;
22363;SDS011;11349;53.412;-1.328;2023-04-24T07:33:37;11.93;;;2.88;;
22363;SDS011;11349;53.412;-1.328;2023-04-24T07:36:03;12.38;;;3.58;;
22363;SDS011;11349;53.412;-1.328;2023-04-24T07:38:29;11.30;;;2.90;;
22363;SDS011;11349;53.412;-1.328;2023-04-24T07:40:56;19.33;;;3.85;;
22363;SDS011;11349;53.412;-1.328;2023-04-24T07:43:22;9.25;;;3.00;;
22363;SDS011;11349;53.412;-1.328;2023-04-24T07:45:49;9.20;;;2.85;;
22363;SDS011;11349;53.412;-1.328;2023-04-24T07:48:15;17.10;;;3.65;;
22363;SDS011;11349;53.412;-1.328;2023-04-24T07:50:42;12.30;;;3.30;;
22363;SDS011;11349;53.412;-1.328;2023-04-24T07:53:09;12.23;;;2.90;;
22363;SDS011;11349;53.412;-1.328;2023-04-24T07:55:35;8.82;;;3.28;;
22363;SDS011;11349;53.412;-1.328;2023-04-24T07:58:00;9.52;;;3.15;;
22363;SDS011;11349;53.412;-1.328;2023-04-24T08:00:26;13.48;;;3.15;;
22363;SDS011;11349;53.412;-1.328;2023-04-24T08:02:52;7.72;;;2.22;;
22363;SDS011;11349;53.412;-1.328;2023-04-24T08:05:18;14.68;;;4.00;;
22363;SDS011;11349;53.412;-1.328;2023-04-24T08:07:44;13.95;;;2.67;;
22363;SDS011;11349;53.412;-1.328;2023-04-24T08:10:11;11.85;;;2.70;;
22363;SDS011;11349;53.412;-1.328;2023-04-24T08:12:37;9.00;;;2.70;;
22363;SDS011;11349;53.412;-1.328;2023-04-24T08:15:04;10.02;;;2.47;;
22363;SDS011;11349;53.412;-1.328;2023-04-24T08:17:30;10.20;;;2.85;;
22363;SDS011;11349;53.412;-1.328;2023-04-24T08:19:56;15.75;;;2.75;;
22363;SDS011;11349;53.412;-1.328;2023-04-24T08:22:26;13.85;;;3.40;;
22363;SDS011;11349;53.412;-1.328;2023-04-24T08:24:53;11.55;;;3.03;;
22363;SDS011;11349;53.412;-1.328;2023-04-24T08:27:19;10.73;;;2.60;;
22363;SDS011;11349;53.412;-1.328;2023-04-24T08:29:45;13.02;;;3.13;;
22363;SDS011;11349;53.412;-1.328;2023-04-24T08:32:10;9.43;;;2.92;;
22363;SDS011;11349;53.412;-1.328;2023-04-24T08:34:36;12.77;;;2.85;;
22363;SDS011;11349;53.412;-1.328;2023-04-24T08:37:02;10.98;;;3.63;;
22363;SDS011;11349;53.412;-1.328;2023-04-24T08:39:30;9.30;;;3.10;;
22363;SDS011;11349;53.412;-1.328;2023-04-24T08:41:56;10.93;;;2.33;;
22363;SDS011;11349;53.412;-1.328;2023-04-24T08:44:22;11.68;;;3.15;;
22363;SDS011;11349;53.412;-1.328;2023-04-24T08:46:48;11.82;;;3.13;;
22363;SDS011;11349;53.412;-1.328;2023-04-24T08:49:15;13.93;;;2.70;;
22363;SDS011;11349;53.412;-1.328;2023-04-24T08:51:44;11.23;;;2.70;;
22363;SDS011;11349;53.412;-1.328;2023-04-24T08:54:12;11.18;;;2.92;;
22363;SDS011;11349;53.412;-1.328;2023-04-24T08:56:38;8.13;;;2.90;;
22363;SDS011;11349;53.412;-1.328;2023-04-24T08:59:09;11.23;;;3.13;;
22363;SDS011;11349;53.412;-1.328;2023-04-24T09:01:36;10.35;;;3.25;;
22363;SDS011;11349;53.412;-1.328;2023-04-24T09:04:04;12.70;;;2.70;;
22363;SDS011;11349;53.412;-1.328;2023-04-24T09:06:34;12.13;;;2.80;;
22363;SDS011;11349;53.412;-1.328;2023-04-24T09:09:00;14.30;;;3.05;;
22363;SDS011;11349;53.412;-1.328;2023-04-24T09:11:28;12.57;;;3.28;;
22363;SDS011;11349;53.412;-1.328;2023-04-24T09:13:55;13.88;;;3.65;;
22363;SDS011;11349;53.412;-1.328;2023-04-24T09:16:22;14.35;;;3.05;;
22363;SDS011;11349;53.412;-1.328;2023-04-24T09:18:50;12.88;;;3.47;;
22363;SDS011;11349;53.412;-1.328;2023-04-24T09:21:16;6.00;;;2.45;;
22363;SDS011;11349;53.412;-1.328;2023-04-24T09:23:42;7.40;;;2.75;;
22363;SDS011;11349;53.412;-1.328;2023-04-24T09:26:08;10.55;;;2.67;;
22363;SDS011;11349;53.412;-1.328;2023-04-24T09:28:36;6.82;;;2.33;;
22363;SDS011;11349;53.412;-1.328;2023-04-24T09:33:37;12.63;;;3.42;;
22363;SDS011;11349;53.412;-1.328;2023-04-24T09:36:02;8.18;;;2.45;;
22363;SDS011;11349;53.412;-1.328;2023-04-24T09:38:32;10.00;;;3.17;;
22363;SDS011;11349;53.412;-1.328;2023-04-24T09:40:59;11.95;;;2.65;;
22363;SDS011;11349;53.412;-1.328;2023-04-24T09:43:28;12.02;;;2.90;;
22363;SDS011;11349;53.412;-1.328;2023-04-24T09:45:55;14.43;;;3.38;;
22363;SDS011;11349;53.412;-1.328;2023-04-24T09:48:35;9.00;;;2.80;;
22363;SDS011;11349;53.412;-1.328;2023-04-24T09:51:03;8.88;;;2.90;;
22363;SDS011;11349;53.412;-1.328;2023-04-24T09:53:31;9.10;;;3.08;;
22363;SDS011;11349;53.412;-1.328;2023-04-24T09:56:07;8.90;;;2.65;;
22363;SDS011;11349;53.412;-1.328;2023-04-24T09:58:35;7.00;;;2.67;;
22363;SDS011;11349;53.412;-1.328;2023-04-24T10:01:01;9.75;;;2.97;;
22363;SDS011;11349;53.412;-1.328;2023-04-24T10:03:31;13.65;;;3.45;;
22363;SDS011;11349;53.412;-1.328;2023-04-24T10:05:58;11.75;;;2.65;;
22363;SDS011;11349;53.412;-1.328;2023-04-24T10:08:25;7.20;;;2.65;;
22363;SDS011;11349;53.412;-1.328;2023-04-24T10:10:51;12.27;;;3.00;;
22363;SDS011;11349;53.412;-1.328;2023-04-24T10:13:17;12.52;;;2.85;;
22363;SDS011;11349;53.412;-1.328;2023-04-24T10:15:44;7.15;;;2.30;;
22363;SDS011;11349;53.412;-1.328;2023-04-24T10:18:11;10.48;;;2.65;;
22363;SDS011;11349;53.412;-1.328;2023-04-24T10:20:38;13.80;;;2.92;;
22363;SDS011;11349;53.412;-1.328;2023-04-24T10:23:04;8.75;;;2.70;;
22363;SDS011;11349;53.412;-1.328;2023-04-24T10:25:31;9.80;;;2.40;;
22363;SDS011;11349;53.412;-1.328;2023-04-24T10:27:59;13.30;;;3.83;;
22363;SDS011;11349;53.412;-1.328;2023-04-24T10:30:26;9.70;;;3.20;;
22363;SDS011;11349;53.412;-1.328;2023-04-24T10:32:54;11.18;;;2.97;;
22363;SDS011;11349;53.412;-1.328;2023-04-24T10:35:20;12.73;;;2.63;;
22363;SDS011;11349;53.412;-1.328;2023-04-24T10:40:42;8.57;;;2.97;;
22363;SDS011;11349;53.412;-1.328;2023-04-24T10:43:09;10.50;;;3.38;;
22363;SDS011;11349;53.412;-1.328;2023-04-24T10:45:36;7.07;;;2.88;;
22363;SDS011;11349;53.412;-1.328;2023-04-24T10:59:49;9.00;;;3.05;;
22363;SDS011;11349;53.412;-1.328;2023-04-24T11:02:37;12.45;;;3.10;;
22363;SDS011;11349;53.412;-1.328;2023-04-24T11:05:05;11.02;;;3.47;;
22363;SDS011;11349;53.412;-1.328;2023-04-24T11:10:37;11.73;;;3.45;;
22363;SDS011;11349;53.412;-1.328;2023-04-24T11:13:21;12.73;;;4.88;;
22363;SDS011;11349;53.412;-1.328;2023-04-24T11:16:11;8.80;;;2.90;;
22363;SDS011;11349;53.412;-1.328;2023-04-24T11:21:27;13.57;;;3.30;;
22363;SDS011;11349;53.412;-1.328;2023-04-24T11:32:19;7.75;;;2.75;;
22363;SDS011;11349;53.412;-1.328;2023-04-24T11:40:01;9.77;;;2.35;;
22363;SDS011;11349;53.412;-1.328;2023-04-24T11:42:29;7.90;;;2.33;;
22363;SDS011;11349;53.412;-1.328;2023-04-24T11:45:07;8.60;;;2.78;;
22363;SDS011;11349;53.412;-1.328;2023-04-24T11:47:33;12.07;;;3.58;;
22363;SDS011;11349;53.412;-1.328;2023-04-24T11:49:59;9.43;;;2.60;;
22363;SDS011;11349;53.412;-1.328;2023-04-24T11:52:26;8.88;;;2.38;;
22363;SDS011;11349;53.412;-1.328;2023-04-24T11:54:52;7.15;;;2.35;;
22363;SDS011;11349;53.412;-1.328;2023-04-24T11:57:21;8.43;;;2.28;;
22363;SDS011;11349;53.412;-1.328;2023-04-24T11:59:49;9.50;;;3.00;;
22363;SDS011;11349;53.412;-1.328;2023-04-24T12:02:21;10.77;;;2.70;;
22363;SDS011;11349;53.412;-1.328;2023-04-24T12:04:48;10.07;;;2.90;;
22363;SDS011;11349;53.412;-1.328;2023-04-24T12:07:16;9.75;;;2.53;;
22363;SDS011;11349;53.412;-1.328;2023-04-24T12:09:46;9.57;;;2.70;;
22363;SDS011;11349;53.412;-1.328;2023-04-24T12:12:14;7.95;;;2.60;;
22363;SDS011;11349;53.412;-1.328;2023-04-24T12:14:50;10.88;;;2.78;;
22363;SDS011;11349;53.412;-1.328;2023-04-24T12:17:29;10.45;;;2.80;;
22363;SDS011;11349;53.412;-1.328;2023-04-24T12:20:06;9.57;;;2.60;;
22363;SDS011;11349;53.412;-1.328;2023-04-24T12:22:43;10.82;;;3.13;;
22363;SDS011;11349;53.412;-1.328;2023-04-24T12:25:12;10.20;;;3.70;;
22363;SDS011;11349;53.412;-1.328;2023-04-24T12:27:45;7.90;;;3.17;;
22363;SDS011;11349;53.412;-1.328;2023-04-24T12:30:17;8.05;;;2.47;;
22363;SDS011;11349;53.412;-1.328;2023-04-24T12:32:44;11.50;;;2.83;;
22363;SDS011;11349;53.412;-1.328;2023-04-24T12:35:11;11.10;;;2.53;;
22363;SDS011;11349;53.412;-1.328;2023-04-24T12:37:37;8.05;;;2.40;;
22363;SDS011;11349;53.412;-1.328;2023-04-24T12:40:08;7.65;;;2.42;;
22363;SDS011;11349;53.412;-1.328;2023-04-24T12:42:36;8.20;;;2.03;;
22363;SDS011;11349;53.412;-1.328;2023-04-24T12:45:11;9.77;;;2.53;;
22363;SDS011;11349;53.412;-1.328;2023-04-24T12:47:38;8.07;;;2.38;;
22363;SDS011;11349;53.412;-1.328;2023-04-24T12:50:05;9.55;;;2.15;;
22363;SDS011;11349;53.412;-1.328;2023-04-24T12:52:32;13.23;;;2.55;;
22363;SDS011;11349;53.412;-1.328;2023-04-24T12:54:58;12.43;;;2.42;;
22363;SDS011;11349;53.412;-1.328;2023-04-24T12:57:25;10.00;;;2.45;;
22363;SDS011;11349;53.412;-1.328;2023-04-24T12:59:56;6.97;;;1.88;;
22363;SDS011;11349;53.412;-1.328;2023-04-24T13:02:23;9.05;;;2.75;;
22363;SDS011;11349;53.412;-1.328;2023-04-24T13:04:50;8.88;;;2.40;;
22363;SDS011;11349;53.412;-1.328;2023-04-24T13:07:16;9.30;;;2.85;;
22363;SDS011;11349;53.412;-1.328;2023-04-24T13:09:42;8.27;;;2.90;;
22363;SDS011;11349;53.412;-1.328;2023-04-24T13:12:09;7.72;;;3.13;;
22363;SDS011;11349;53.412;-1.328;2023-04-24T13:14:36;11.77;;;3.30;;
22363;SDS011;11349;53.412;-1.328;2023-04-24T13:17:02;9.35;;;2.65;;
22363;SDS011;11349;53.412;-1.328;2023-04-24T13:19:28;13.57;;;3.45;;
22363;SDS011;11349;53.412;-1.328;2023-04-24T13:21:55;10.10;;;4.22;;
22363;SDS011;11349;53.412;-1.328;2023-04-24T13:24:25;17.13;;;4.97;;
22363;SDS011;11349;53.412;-1.328;2023-04-24T13:26:53;13.25;;;4.20;;
22363;SDS011;11349;53.412;-1.328;2023-04-24T13:29:19;8.50;;;3.15;;
22363;SDS011;11349;53.412;-1.328;2023-04-24T13:31:52;9.77;;;2.90;;
22363;SDS011;11349;53.412;-1.328;2023-04-24T13:34:22;8.98;;;2.25;;
22363;SDS011;11349;53.412;-1.328;2023-04-24T13:36:49;8.48;;;2.00;;
22363;SDS011;11349;53.412;-1.328;2023-04-24T13:39:16;9.82;;;3.22;;
22363;SDS011;11349;53.412;-1.328;2023-04-24T13:41:42;7.80;;;2.30;;
22363;SDS011;11349;53.412;-1.328;2023-04-24T13:44:07;10.35;;;1.90;;
22363;SDS011;11349;53.412;-1.328;2023-04-24T13:46:33;7.05;;;1.90;;
22363;SDS011;11349;53.412;-1.328;2023-04-24T13:48:59;7.43;;;2.70;;
22363;SDS011;11349;53.412;-1.328;2023-04-24T13:51:25;13.65;;;2.60;;
22363;SDS011;11349;53.412;-1.328;2023-04-24T13:53:54;12.25;;;3.35;;
22363;SDS011;11349;53.412;-1.328;2023-04-24T13:56:20;10.35;;;3.10;;
22363;SDS011;11349;53.412;-1.328;2023-04-24T13:58:47;7.10;;;2.40;;
22363;SDS011;11349;53.412;-1.328;2023-04-24T14:01:13;10.25;;;2.15;;
22363;SDS011;11349;53.412;-1.328;2023-04-24T14:03:40;12.88;;;3.03;;
22363;SDS011;11349;53.412;-1.328;2023-04-24T14:06:07;11.25;;;3.15;;
22363;SDS011;11349;53.412;-1.328;2023-04-24T14:08:32;9.65;;;2.47;;
22363;SDS011;11349;53.412;-1.328;2023-04-24T14:10:58;10.48;;;2.72;;
22363;SDS011;11349;53.412;-1.328;2023-04-24T14:13:24;7.85;;;2.50;;
22363;SDS011;11349;53.412;-1.328;2023-04-24T14:15:50;7.78;;;2.40;;
22363;SDS011;11349;53.412;-1.328;2023-04-24T14:18:17;11.45;;;2.55;;
22363;SDS011;11349;53.412;-1.328;2023-04-24T14:20:43;6.03;;;1.90;;
22363;SDS011;11349;53.412;-1.328;2023-04-24T14:23:09;7.15;;;1.88;;
22363;SDS011;11349;53.412;-1.328;2023-04-24T14:25:35;11.13;;;2.50;;
22363;SDS011;11349;53.412;-1.328;2023-04-24T14:28:01;8.27;;;2.17;;
22363;SDS011;11349;53.412;-1.328;2023-04-24T14:30:27;10.10;;;2.42;;
22363;SDS011;11349;53.412;-1.328;2023-04-24T14:32:52;8.90;;;2.08;;
22363;SDS011;11349;53.412;-1.328;2023-04-24T14:35:18;15.95;;;2.45;;
22363;SDS011;11349;53.412;-1.328;2023-04-24T14:37:44;11.57;;;3.25;;
22363;SDS011;11349;53.412;-1.328;2023-04-24T14:40:10;7.65;;;2.53;;
22363;SDS011;11349;53.412;-1.328;2023-04-24T14:42:36;9.07;;;2.10;;
22363;SDS011;11349;53.412;-1.328;2023-04-24T14:45:02;8.02;;;3.20;;
22363;SDS011;11349;53.412;-1.328;2023-04-24T14:47:27;10.23;;;2.55;;
22363;SDS011;11349;53.412;-1.328;2023-04-24T14:49:54;6.55;;;1.85;;
22363;SDS011;11349;53.412;-1.328;2023-04-24T14:52:20;8.77;;;2.25;;
22363;SDS011;11349;53.412;-1.328;2023-04-24T14:54:46;9.25;;;1.95;;
22363;SDS011;11349;53.412;-1.328;2023-04-24T14:57:11;10.40;;;2.33;;
22363;SDS011;11349;53.412;-1.328;2023-04-24T14:59:37;8.95;;;2.35;;
22363;SDS011;11349;53.412;-1.328;2023-04-24T15:02:03;13.00;;;3.15;;
22363;SDS011;11349;53.412;-1.328;2023-04-24T15:04:29;14.73;;;3.00;;